createdAt,value
2023-02-02T00:01:17.677Z,6.514111982445411
2023-02-02T00:04:19.176Z,6.463374214270152
2023-02-02T00:07:17.135Z,6.475576966049357
2023-02-02T00:11:17.854Z,6.471081215202867
2023-02-02T00:14:17.516Z,6.523103488626748
2023-02-02T00:17:16.992Z,6.480072717118674
2023-02-02T00:21:16.633Z,6.475576966049357
2023-02-02T00:24:19.437Z,6.439610965516567
2023-02-02T00:27:17.277Z,6.430619467611632
2023-02-02T00:31:17.126Z,6.408782976410384
2023-02-02T00:34:18.713Z,6.4049294785088025
2023-02-02T00:37:17.510Z,6.341989035956885
2023-02-02T00:41:17.112Z,6.3580452671521925
2023-02-02T00:45:22.731Z,6.320794815131012
2023-02-02T00:47:18.390Z,6.316941320967453
2023-02-02T00:51:16.342Z,6.236017981349505
2023-02-02T00:54:16.921Z,6.2302377455679565
2023-02-02T00:57:16.913Z,6.180142384224109
2023-02-02T01:01:16.969Z,6.183995872575997
2023-02-02T01:04:16.742Z,6.085731970741472
2023-02-02T01:07:16.617Z,6.119128840469057
2023-02-02T01:11:17.083Z,5.999028616349188
2023-02-02T01:14:16.777Z,5.991963902235511
2023-02-02T01:17:16.701Z,5.985541435336927
2023-02-02T01:21:17.401Z,5.954713600553805
2023-02-02T01:24:17.427Z,5.896269192537966
2023-02-02T01:27:17.825Z,5.864156896471195
2023-02-02T01:31:18.643Z,5.860945667489796
2023-02-02T01:34:16.845Z,5.805070301412433
2023-02-02T01:37:16.838Z,5.7973633570684795
2023-02-02T01:41:19.847Z,5.724147418460871
2023-02-02T01:45:27.287Z,5.702953341999091
2023-02-02T01:47:18.563Z,5.695246406331717
2023-02-02T01:51:20.519Z,5.629095235452496
2023-02-02T01:54:22.077Z,5.584780400391901
2023-02-02T01:57:24.202Z,5.577715718542549
2023-02-02T02:01:17.090Z,5.5635863564945796
2023-02-02T02:04:17.910Z,5.566797574948578
2023-02-02T02:07:17.421Z,5.559090650849976
2023-02-02T02:11:16.838Z,5.518629310075721
2023-02-02T02:32:04.277Z,5.419081643730533
2023-02-02T02:34:22.641Z,5.46468088378615
2023-02-02T02:37:26.370Z,5.3452237683320165
2023-02-02T02:41:20.687Z,5.327883232390741
2023-02-02T02:44:19.350Z,5.247603016604353
2023-02-02T02:47:18.713Z,5.228978016696419
2023-02-02T02:51:43.587Z,5.256594397239041
2023-02-02T02:54:23.629Z,5.307331490382785
2023-02-02T02:57:33.510Z,5.210995261793505
2023-02-02T03:01:24.188Z,5.22640905149201
2023-02-02T03:04:26.985Z,5.221913362559372
2023-02-02T03:07:23.115Z,5.141633240564625
2023-02-02T03:11:17.110Z,5.136495315176217
2023-02-02T03:14:17.113Z,5.1390642778340405
2023-02-02T03:17:17.000Z,5.125577224692188
2023-02-02T03:21:16.830Z,5.163469426712254
2023-02-02T03:24:17.122Z,5.160258222537323
2023-02-02T03:27:16.954Z,5.173745280836011
2023-02-02T03:31:17.043Z,5.208426297098413
2023-02-02T03:34:16.773Z,5.1782409673812255
2023-02-02T03:37:16.774Z,5.187232341140134
2023-02-02T03:41:16.167Z,5.237969395484834
2023-02-02T03:44:16.536Z,5.176956485488427
2023-02-02T03:47:16.679Z,5.199434921238572
2023-02-02T03:51:16.191Z,5.220628880048116
2023-02-02T03:54:16.496Z,5.26173232943047
2023-02-02T03:57:17.005Z,5.289990961685635
2023-02-02T04:01:16.402Z,5.272650436303593
2023-02-02T04:04:16.644Z,5.250171982409029
2023-02-02T04:07:16.733Z,5.2630168125238015
2023-02-02T04:11:16.831Z,5.303478039274705
2023-02-02T04:14:16.808Z,5.259805604824578
2023-02-02T04:17:16.875Z,5.263659054077289
2023-02-02T04:21:16.888Z,5.272650436303593
2023-02-02T04:24:17.385Z,5.234758188672368
2023-02-02T04:27:17.116Z,5.204572850192198
2023-02-02T04:31:16.380Z,5.22769353408512
2023-02-02T04:34:16.819Z,5.21870215631534
2023-02-02T04:37:16.958Z,5.221913362559372
2023-02-02T04:41:17.397Z,5.2630168125238015
2023-02-02T04:44:17.289Z,5.22640905149201
2023-02-02T04:47:17.202Z,5.246960775164553
2023-02-02T04:51:16.366Z,5.22640905149201
2023-02-02T04:54:16.576Z,5.2578788802596135
2023-02-02T04:57:18.097Z,5.248887499497596
2023-02-02T05:01:18.386Z,5.268796986668894
2023-02-02T05:04:16.732Z,5.285495269601597
2023-02-02T05:07:16.669Z,5.287421994753186
2023-02-02T05:11:18.738Z,5.228335775388496
2023-02-02T05:14:18.968Z,5.177598726432552
2023-02-02T05:17:17.445Z,5.166680631000872
2023-02-02T05:21:16.284Z,5.199434921238572
2023-02-02T05:24:16.719Z,5.185305618116763
2023-02-02T05:27:16.682Z,5.1930125104558105
2023-02-02T05:31:17.953Z,5.127503946446813
2023-02-02T05:34:16.936Z,5.0851160772992445
2023-02-02T05:37:17.734Z,5.067133350918084
2023-02-02T05:41:16.673Z,5.07419799299978
2023-02-02T05:44:16.796Z,5.09153848044225
2023-02-02T05:47:17.348Z,5.0433704679541735
2023-02-02T05:51:21.216Z,5.022818790411202
2023-02-02T05:54:21.435Z,5.02153431071938
2023-02-02T05:57:18.280Z,4.953456913082573
2023-02-02T06:01:18.294Z,4.964374982848312
2023-02-02T06:04:17.456Z,4.971439616926455
2023-02-02T06:07:17.299Z,4.9727240959088705
2023-02-02T06:11:17.603Z,4.991991282827894
2023-02-02T06:14:16.644Z,4.984926647149041
2023-02-02T06:17:16.566Z,4.939969887539337
2023-02-02T06:21:17.104Z,5.012542953385946
2023-02-02T06:24:17.396Z,4.95538363118103
2023-02-02T06:27:17.127Z,4.966943940631245
2023-02-02T06:31:20.713Z,4.957952588709304
2023-02-02T06:34:16.752Z,4.927767342347306
2023-02-02T06:37:16.640Z,4.917491516090467
2023-02-02T06:41:16.930Z,4.9027200178858035
2023-02-02T06:44:17.271Z,4.914280320623948
2023-02-02T06:47:17.171Z,4.99712920003085
2023-02-02T06:51:16.709Z,4.891801955541541
2023-02-02T06:54:16.967Z,4.869965834795676
2023-02-02T06:57:16.830Z,4.831431516891553
2023-02-02T07:01:17.619Z,4.894370911269016
2023-02-02T07:04:17.265Z,4.877030461520553
2023-02-02T07:07:17.044Z,4.932263016700745
2023-02-02T07:11:17.281Z,4.900151061921861
2023-02-02T07:14:16.968Z,4.898866583967174
2023-02-02T07:17:16.956Z,4.993275762101348
2023-02-02T07:21:18.604Z,4.979146491093798
2023-02-02T07:24:16.672Z,4.952172434373006
2023-02-02T07:27:16.741Z,4.972081856415389
2023-02-02T07:31:20.015Z,5.007405035309875
2023-02-02T07:34:17.309Z,5.027956709360387
2023-02-02T07:37:17.327Z,5.020892070880291
2023-02-02T07:41:17.117Z,5.0896117594516
2023-02-02T07:44:17.304Z,5.103098807245624
2023-02-02T07:47:17.606Z,5.178883208334446
2023-02-02T07:51:17.489Z,5.214848708972568
2023-02-02T07:54:17.316Z,5.252740948286464
2023-02-02T07:57:17.797Z,5.270081469862271
2023-02-02T08:01:16.906Z,5.316322876938284
2023-02-02T08:04:17.619Z,5.395960911052316
2023-02-02T08:07:17.437Z,5.430642012279714
2023-02-02T08:11:18.217Z,5.519913796807032
2023-02-02T08:14:16.343Z,5.567439818653019
2023-02-02T08:17:16.381Z,5.650931538952227
2023-02-02T08:21:17.323Z,5.733138846334714
2023-02-02T08:24:16.692Z,5.794152130451766
2023-02-02T08:27:16.704Z,5.860945667489796
2023-02-02T08:31:18.651Z,5.973980996065438
2023-02-02T08:34:16.749Z,6.0844474759975125
2023-02-02T08:37:16.384Z,6.171793160023299
2023-02-02T08:41:19.988Z,6.297031603730375
2023-02-02T08:44:17.090Z,6.417132222425425
2023-02-02T08:47:17.271Z,6.492917721401682
2023-02-02T08:51:18.926Z,6.6123763483541556
2023-02-02T08:54:17.243Z,6.6836662490743945
2023-02-02T08:57:17.574Z,6.760736475043177
2023-02-02T09:01:19.264Z,6.926437682619962
2023-02-02T09:04:17.350Z,7.027913765390349
2023-02-02T09:07:18.032Z,7.139023783688026
2023-02-02T09:11:18.596Z,7.294449586767951
2023-02-02T09:14:16.784Z,7.394641567941653
2023-02-02T09:17:16.558Z,7.483915285427156
2023-02-02T09:21:17.981Z,7.623927479734357
2023-02-02T09:24:16.822Z,7.751094705883679
2023-02-02T09:27:16.396Z,7.848075892114139
2023-02-02T09:31:16.912Z,8.000291605413896
2023-02-02T09:34:16.974Z,8.050387971985856
2023-02-02T09:37:16.772Z,8.099842104584969
2023-02-02T09:42:37.759Z,8.229579048118103
2023-02-02T09:44:24.738Z,8.326560745916595
2023-02-02T09:47:19.445Z,8.43767235494779
2023-02-02T09:51:19.924Z,8.62392911468778
2023-02-02T09:54:20.380Z,8.77486159706832
2023-02-02T09:57:20.241Z,8.880835617742559
2023-02-02T10:01:21.195Z,9.05296338184271
2023-02-02T10:04:25.230Z,9.230229629542738
2023-02-02T10:07:23.856Z,9.417130287603594
2023-02-02T10:11:27.349Z,9.70101449801814
2023-02-02T10:14:23.494Z,9.873786092622685
2023-02-02T10:17:36.543Z,10.08252544698198
2023-02-02T10:21:28.399Z,10.364484906703364
2023-02-02T10:24:19.094Z,10.564233482549843
2023-02-02T10:27:27.761Z,10.747925487145494
2023-02-02T10:31:26.531Z,11.02025277984294
2023-02-02T10:34:25.127Z,11.174400666353995
2023-02-02T10:37:26.088Z,11.376077880069442
2023-02-02T10:41:26.501Z,11.646480198210702
2023-02-02T10:44:24.695Z,11.834028122655946
2023-02-02T10:47:23.616Z,11.978543054957209
2023-02-02T10:51:22.887Z,12.23481676767733
2023-02-02T10:54:33.373Z,12.429431123380436
2023-02-02T10:57:26.420Z,12.549539861480298
2023-02-02T11:01:18.596Z,12.759569962140905
2023-02-02T11:11:40.857Z,13.30809123385634
2023-02-02T11:14:46.135Z,13.478942799159359
2023-02-02T11:17:37.146Z,13.60483363211615
2023-02-02T11:21:22.347Z,13.83541984551157
2023-02-02T11:24:23.467Z,13.978653359516557
2023-02-02T11:27:20.025Z,14.180336807472576
2023-02-02T11:31:32.291Z,14.33834389840058
2023-02-02T11:34:20.780Z,14.419274466182197
2023-02-02T11:37:21.271Z,14.59269735453645
2023-02-02T11:41:17.493Z,14.726297435332617
2023-02-02T11:44:25.135Z,14.977440427435795
2023-02-02T11:47:21.370Z,15.087275560651415
2023-02-02T11:51:23.200Z,15.175272225310618
2023-02-02T11:54:23.117Z,15.36925057586086
2023-02-02T11:57:19.566Z,15.465597592876293
2023-02-02T12:01:24.303Z,15.524048166397643
2023-02-02T12:04:24.546Z,15.682057597601034
2023-02-02T12:07:22.001Z,15.73023125941545
2023-02-02T12:11:32.624Z,15.865759965197594
2023-02-02T12:14:29.863Z,15.970457634816194
2023-02-02T12:17:29.358Z,16.093140333933935
2023-02-02T12:21:24.544Z,16.23059653943428
2023-02-02T12:24:28.395Z,16.31730967339572
2023-02-02T12:27:25.290Z,16.418796261366516
2023-02-02T12:31:24.290Z,16.547902781020184
2023-02-02T12:34:27.111Z,16.612134948789844
2023-02-02T12:37:30.955Z,16.71683347972721
2023-02-02T12:41:31.230Z,16.81703586788499
2023-02-02T12:44:25.409Z,16.879341254782865
2023-02-02T12:47:24.318Z,16.949996899945198
2023-02-02T12:51:33.118Z,17.054053495737843
2023-02-02T12:54:46.409Z,17.149117650534116
2023-02-02T12:57:28.724Z,17.235831662385316
2023-02-02T13:01:29.248Z,17.415040882841367
2023-02-02T13:04:31.430Z,17.413113900093595
2023-02-02T13:07:34.571Z,17.563418677324442
2023-02-02T13:11:41.435Z,17.481200648672893
2023-02-02T13:14:22.575Z,17.582046209793134
2023-02-02T13:17:23.268Z,17.657198707213684
2023-02-02T13:21:22.412Z,17.740701555135093
2023-02-02T13:24:26.110Z,17.804292237023127
2023-02-02T13:27:20.461Z,17.858248002061828
2023-02-02T13:31:22.765Z,17.738132235591547
2023-02-02T13:34:22.111Z,17.770891065221896
2023-02-02T13:37:25.005Z,17.688672848559598
2023-02-02T13:41:19.593Z,17.834481768269324
2023-02-02T13:44:25.193Z,17.767037084651474
2023-02-02T13:47:23.312Z,17.95652465654457
2023-02-02T13:51:40.183Z,17.959736313716075
2023-02-02T14:01:18.988Z,18.06829039297445
2023-02-02T14:04:23.186Z,18.15500528332932
2023-02-02T14:07:27.313Z,18.145370291419386
2023-02-02T14:11:25.627Z,18.18840659653879
2023-02-02T14:14:38.084Z,18.121603982416218
2023-02-02T14:17:52.508Z,18.137019965925084
2023-02-02T14:22:00.433Z,18.22758892193815
2023-02-02T14:24:42.015Z,18.250712925195693
2023-02-02T14:28:10.259Z,18.180056267083636
2023-02-02T14:31:28.365Z,18.212172923040633
2023-02-02T14:34:34.712Z,18.288610609945408
2023-02-02T14:37:41.952Z,18.22951592198451
2023-02-02T14:43:50.711Z,18.210888256584077
2023-02-02T14:44:17.691Z,18.220523255451646
2023-02-02T14:48:00.640Z,18.129311973843233
2023-02-02T14:51:19.669Z,18.158859280379783
2023-02-02T14:54:22.997Z,18.15372061768221
2023-02-02T14:57:26.214Z,18.21538458926161
2023-02-02T15:01:24.856Z,18.21795392232025
2023-02-02T15:04:25.629Z,18.11325365910925
2023-02-02T15:08:25.158Z,18.088202693799484
2023-02-02T15:12:15.763Z,18.02653880865846
2023-02-02T15:14:21.351Z,17.95138600530663
2023-02-02T15:17:24.055Z,17.83769342112073
2023-02-02T15:21:21.419Z,17.71115438477718
2023-02-02T15:24:23.196Z,17.698307791970727
2023-02-02T15:27:22.024Z,17.55121443398757
2023-02-02T15:31:27.198Z,17.51331705724733
2023-02-02T15:34:22.761Z,17.378428217632244
2023-02-02T15:37:21.930Z,17.27180194347311
2023-02-02T15:41:21.940Z,17.04506094571125
2023-02-02T15:44:19.614Z,16.95192387285679
2023-02-02T15:47:19.665Z,16.948712251360213
2023-02-02T15:51:17.419Z,16.781065767095424
2023-02-02T15:54:23.978Z,16.583872789368705
2023-02-02T15:57:29.084Z,16.502297969509165
2023-02-02T16:01:19.068Z,16.398884326926872
2023-02-02T16:04:21.632Z,16.23380813551048
2023-02-02T16:07:20.915Z,16.109198291122812
2023-02-02T16:11:19.445Z,15.971099952180612
2023-02-02T16:14:18.938Z,15.791251267767894
2023-02-02T16:17:21.973Z,15.666642031222818
2023-02-02T16:21:23.825Z,15.514413453884481
2023-02-02T16:24:23.248Z,15.37310445457697
2023-02-02T16:27:20.735Z,15.127098858172484
2023-02-02T16:31:17.513Z,15.016621366133132
2023-02-02T16:34:41.667Z,14.814293749863646
2023-02-02T16:37:21.861Z,14.671058916532001
2023-02-02T16:41:26.929Z,14.540670453221537
2023-02-02T16:44:49.863Z,14.34733618014443
2023-02-02T16:47:51.493Z,14.258698013291815
2023-02-02T16:51:26.708Z,14.02939533128083
2023-02-02T16:54:19.848Z,13.845054379718295
2023-02-02T16:57:20.881Z,13.754489798570285
2023-02-02T17:01:16.937Z,13.623460351828545
2023-02-02T17:04:20.693Z,13.415355148917296
2023-02-02T17:07:17.288Z,13.292676070857215
2023-02-02T17:11:22.372Z,13.171281753772927
2023-02-02T17:14:19.865Z,13.002999953256586
2023-02-02T17:17:16.614Z,12.936843453038545
2023-02-02T17:21:20.361Z,12.787830930233122
2023-02-02T17:24:16.959Z,12.692129051129815
2023-02-02T17:27:25.506Z,12.573947004170986
2023-02-02T17:31:16.781Z,12.369055668030432
2023-02-02T17:34:16.984Z,12.33822566377503
2023-02-02T17:37:16.780Z,12.181506637475923
2023-02-02T17:41:17.124Z,12.133977150218652
2023-02-02T17:44:17.594Z,12.014511251665045
2023-02-02T17:47:17.364Z,11.882199741176828
2023-02-02T17:51:17.246Z,11.843020156171406
2023-02-02T17:54:17.395Z,11.711993470219022
2023-02-02T17:57:17.171Z,11.615008152990868
2023-02-02T18:01:17.720Z,11.497469794928111
2023-02-02T18:04:17.234Z,11.429387536960713
2023-02-02T18:07:19.008Z,11.368370462388066
2023-02-02T18:11:19.494Z,11.212295395232285
2023-02-02T18:14:16.743Z,11.137148236445592
2023-02-02T18:17:16.713Z,11.058147444329006
2023-02-02T18:21:17.244Z,10.89629237778754
2023-02-02T18:24:19.380Z,10.827568290049475
2023-02-02T18:27:19.547Z,10.668282754163465
2023-02-02T18:31:19.557Z,10.720307434724237
2023-02-02T18:34:17.066Z,10.568729436263675
2023-02-02T18:37:17.014Z,10.521200793990648
2023-02-02T18:41:18.161Z,10.523769909152543
2023-02-02T18:44:19.861Z,10.408802076882512
2023-02-02T18:47:18.400Z,10.376045905532374
2023-02-02T18:51:18.295Z,10.307322211923838
2023-02-02T18:54:17.897Z,10.248232722598278
2023-02-02T18:57:17.932Z,10.191070101074
2023-02-02T19:01:18.121Z,10.124915651466381
2023-02-02T19:04:17.255Z,10.067753107649333
2023-02-02T19:08:22.602Z,10.01829790217389
2023-02-02T19:11:19.162Z,9.936086711176268
2023-02-02T19:14:20.063Z,9.821119623714186
2023-02-02T19:17:21.308Z,9.754323170545103
2023-02-02T19:21:16.895Z,9.6836731293708
2023-02-02T19:24:17.040Z,9.584120892018927
2023-02-02T19:27:20.070Z,9.523747330327842
2023-02-02T19:31:17.677Z,9.471723335994465
2023-02-02T19:34:20.868Z,9.38052085002746
2023-02-02T19:37:23.194Z,9.271977165811496
2023-02-02T19:41:18.979Z,9.14930369087997
2023-02-02T19:44:19.458Z,9.117832512008409
2023-02-02T19:47:27.145Z,9.02277677273023
2023-02-02T19:51:35.464Z,8.947631427716988
2023-02-02T19:54:28.701Z,8.895607763789394
2023-02-02T19:57:20.321Z,8.846795464271509
2023-02-02T20:01:20.434Z,8.787706926313785
2023-02-02T20:04:18.934Z,8.735683354104186
2023-02-02T20:07:17.341Z,8.61108380863443
2023-02-02T20:11:28.396Z,8.566767516713389
2023-02-02T20:14:27.733Z,8.559702602610923
2023-02-02T20:17:25.441Z,8.462078391347314
2023-02-02T20:21:26.771Z,8.442810467328309
2023-02-02T20:24:21.520Z,8.360600704164607
2023-02-02T20:27:20.944Z,8.345828645242818
2023-02-02T20:31:18.770Z,8.329129798923622
2023-02-02T20:34:22.250Z,8.222514160277296
2023-02-02T20:37:22.653Z,8.169848650076256
2023-02-02T20:41:36.741Z,8.15250757414069
2023-02-02T20:44:18.249Z,8.065159982795375
2023-02-02T20:47:30.299Z,8.06708676699136
2023-02-02T20:51:32.631Z,7.999649344483624
2023-02-02T20:54:20.513Z,7.905879297462889
2023-02-02T20:57:20.541Z,7.884684711224781
2023-02-02T21:01:17.326Z,7.87633533012704
2023-02-02T21:04:19.546Z,7.743387596193588
2023-02-02T21:07:20.930Z,7.729257896795843
2023-02-02T21:11:15.556Z,7.812109347376099
2023-02-02T21:14:16.010Z,7.736322746219594
2023-02-02T21:17:16.257Z,7.686868811808472
2023-02-02T21:21:17.889Z,7.634203612600049
2023-02-02T21:24:17.468Z,7.593741346173919
2023-02-02T21:27:16.693Z,7.568693285526479
2023-02-02T21:31:17.016Z,7.578327154187718
2023-02-02T21:34:17.416Z,7.3914302847771065
2023-02-02T21:37:17.201Z,7.4543714555250515
2023-02-02T21:41:15.929Z,7.466574340622538
2023-02-02T21:44:19.177Z,7.367666792892851
2023-02-02T21:47:25.757Z,7.28481574825646
2023-02-02T21:51:21.797Z,7.280319957301254
2023-02-02T21:54:21.982Z,7.2796777014686995
2023-02-02T21:57:19.063Z,7.197468992445738
2023-02-02T22:01:21.281Z,7.171136531091543
2023-02-02T22:04:22.691Z,7.099846247251207
2023-02-02T22:07:16.331Z,7.095992719991136
2023-02-02T22:11:22.645Z,7.061953236303816
2023-02-02T22:14:21.235Z,7.027271511344952
2023-02-02T22:17:21.510Z,7.029840527553825
2023-02-02T22:21:16.529Z,6.955981340572999
2023-02-02T22:24:16.112Z,6.9405672569621855
2023-02-02T22:27:19.749Z,6.9309334560355635
2023-02-02T22:31:16.312Z,6.941209510393674
2023-02-02T22:34:16.618Z,6.871846166068281
2023-02-02T22:37:16.675Z,6.839733524620897
2023-02-02T22:41:16.413Z,6.792849088523599
2023-02-02T22:44:16.648Z,6.7735815190711035
2023-02-02T22:47:16.651Z,6.7215591019925345
2023-02-02T22:51:15.893Z,6.679812739494901
2023-02-02T22:54:16.192Z,6.611734097250974
2023-02-02T22:57:16.174Z,6.618798859636081
2023-02-02T23:01:16.627Z,6.596320072138861
2023-02-02T23:04:16.062Z,6.591824315307894
2023-02-02T23:07:16.185Z,6.54686675925368
2023-02-02T23:11:16.040Z,6.507689478575867
2023-02-02T23:14:16.272Z,6.47814596663311
2023-02-02T23:17:16.241Z,6.458236214012141
2023-02-02T23:21:17.046Z,6.446675714495723
2023-02-02T23:24:16.141Z,6.4543827140096255
2023-02-02T23:27:16.085Z,6.480072717118674
2023-02-02T23:31:15.870Z,6.444106714803274
2023-02-02T23:34:15.967Z,6.40685622743913
2023-02-02T23:37:15.987Z,6.372817002362081
2023-02-02T23:41:16.390Z,6.307307586274783
2023-02-02T23:44:16.743Z,6.288040119958987
2023-02-02T23:47:17.249Z,6.275837393409165
2023-02-02T23:51:16.204Z,6.3034540926842055
2023-02-02T23:54:16.491Z,6.205190061437679
2023-02-02T23:57:16.469Z,6.1987675794414825
